createdAt,value
2023-05-22T00:00:01.371Z,454.00
2023-05-22T00:01:01.377Z,453.00
2023-05-22T00:02:01.447Z,451.00
2023-05-22T00:03:01.496Z,454.00
2023-05-22T00:04:01.450Z,457.00
2023-05-22T00:05:01.520Z,458.00
2023-05-22T00:06:01.523Z,458.00
2023-05-22T00:07:01.544Z,459.00
2023-05-22T00:08:01.577Z,458.00
2023-05-22T00:09:01.594Z,456.00
2023-05-22T00:10:01.635Z,457.00
2023-05-22T00:11:01.655Z,457.00
2023-05-22T00:12:01.678Z,459.00
2023-05-22T00:13:01.685Z,459.00
2023-05-22T00:14:01.749Z,458.00
2023-05-22T00:15:01.758Z,457.00
2023-05-22T00:16:01.763Z,453.00
2023-05-22T00:17:01.912Z,451.00
2023-05-22T00:18:01.842Z,452.00
2023-05-22T00:19:01.895Z,452.00
2023-05-22T00:20:01.941Z,452.00
2023-05-22T00:21:01.926Z,453.00
2023-05-22T00:22:01.924Z,456.00
2023-05-22T00:23:01.962Z,458.00
2023-05-22T00:24:02.066Z,456.00
2023-05-22T00:25:02.029Z,456.00
2023-05-22T00:26:02.068Z,455.00
2023-05-22T00:27:02.089Z,454.00
2023-05-22T00:28:02.127Z,454.00
2023-05-22T00:29:02.200Z,453.00
2023-05-22T00:30:02.218Z,454.00
2023-05-22T00:31:02.209Z,454.00
2023-05-22T00:32:02.266Z,456.00
2023-05-22T00:33:02.294Z,454.00
2023-05-22T00:34:02.354Z,455.00
2023-05-22T00:35:02.347Z,456.00
2023-05-22T00:36:02.368Z,454.00
2023-05-22T00:37:02.389Z,454.00
2023-05-22T00:38:02.424Z,451.00
2023-05-22T00:39:02.428Z,452.00
2023-05-22T00:40:02.497Z,453.00
2023-05-22T00:41:02.522Z,455.00
2023-05-22T00:42:02.543Z,458.00
2023-05-22T00:43:02.571Z,457.00
2023-05-22T00:44:02.584Z,456.00
2023-05-22T00:45:02.622Z,458.00
2023-05-22T00:46:02.711Z,457.00
2023-05-22T00:47:02.805Z,456.00
2023-05-22T00:48:02.749Z,456.00
2023-05-22T00:49:02.758Z,455.00
2023-05-22T00:50:02.777Z,455.00
2023-05-22T00:51:02.814Z,457.00
2023-05-22T00:52:02.874Z,458.00
2023-05-22T00:53:03.769Z,459.00
2023-05-22T00:54:02.916Z,458.00
2023-05-22T00:55:02.948Z,459.00
2023-05-22T00:56:02.978Z,459.00
2023-05-22T00:57:03.016Z,462.00
2023-05-22T00:58:03.066Z,462.00
2023-05-22T00:59:03.105Z,462.00
2023-05-22T01:00:03.131Z,463.00
2023-05-22T01:01:03.155Z,461.00
2023-05-22T01:02:03.263Z,460.00
2023-05-22T01:03:03.237Z,458.00
2023-05-22T01:04:03.373Z,455.00
2023-05-22T01:05:03.303Z,455.00
2023-05-22T01:06:03.348Z,456.00
2023-05-22T01:07:03.397Z,456.00
2023-05-22T01:08:03.390Z,457.00
2023-05-22T01:09:03.449Z,459.00
2023-05-22T01:10:03.496Z,460.00
2023-05-22T01:11:03.517Z,460.00
2023-05-22T01:12:03.558Z,458.00
2023-05-22T01:13:03.611Z,458.00
2023-05-22T01:14:03.649Z,457.00
2023-05-22T01:15:03.694Z,458.00
2023-05-22T01:16:03.765Z,458.00
2023-05-22T01:17:03.781Z,459.00
2023-05-22T01:18:03.827Z,456.00
2023-05-22T01:19:03.885Z,457.00
2023-05-22T01:20:03.909Z,455.00
2023-05-22T01:21:03.952Z,454.00
2023-05-22T01:22:04.012Z,455.00
2023-05-22T01:23:04.124Z,454.00
2023-05-22T01:24:04.069Z,454.00
2023-05-22T01:25:04.106Z,456.00
2023-05-22T01:26:04.138Z,457.00
2023-05-22T01:27:04.206Z,455.00
2023-05-22T01:28:04.244Z,452.00
2023-05-22T01:29:04.270Z,451.00
2023-05-22T01:30:04.294Z,453.00
2023-05-22T01:31:04.355Z,457.00
2023-05-22T01:32:04.371Z,455.00
2023-05-22T01:33:04.545Z,456.00
2023-05-22T01:34:04.493Z,455.00
2023-05-22T01:35:04.473Z,453.00
2023-05-22T01:36:04.513Z,452.00
2023-05-22T01:37:04.563Z,452.00
2023-05-22T01:38:04.572Z,452.00
2023-05-22T01:39:04.636Z,455.00
2023-05-22T01:40:04.643Z,454.00
2023-05-22T01:41:04.688Z,454.00
2023-05-22T01:42:04.757Z,455.00
2023-05-22T01:43:04.777Z,456.00
2023-05-22T01:44:04.824Z,455.00
2023-05-22T01:45:04.850Z,456.00
2023-05-22T01:46:04.938Z,457.00
2023-05-22T01:47:04.915Z,458.00
2023-05-22T01:48:05.002Z,458.00
2023-05-22T01:49:05.001Z,459.00
2023-05-22T01:50:05.032Z,462.00
2023-05-22T01:51:05.069Z,464.00
2023-05-22T01:52:05.105Z,464.00
2023-05-22T01:53:05.143Z,465.00
2023-05-22T01:54:05.167Z,464.00
2023-05-22T01:55:05.200Z,461.00
2023-05-22T01:56:05.242Z,460.00
2023-05-22T01:57:05.301Z,460.00
2023-05-22T01:58:05.310Z,461.00
2023-05-22T01:59:05.347Z,462.00
2023-05-22T02:00:05.366Z,462.00
2023-05-22T02:01:05.441Z,462.00
2023-05-22T02:02:05.530Z,463.00
2023-05-22T02:03:05.626Z,462.00
2023-05-22T02:04:05.562Z,461.00
2023-05-22T02:05:05.565Z,458.00
2023-05-22T02:06:05.601Z,455.00
2023-05-22T02:07:05.644Z,455.00
2023-05-22T02:08:05.685Z,454.00
2023-05-22T02:09:05.747Z,453.00
2023-05-22T02:10:05.777Z,454.00
2023-05-22T02:11:05.782Z,456.00
2023-05-22T02:12:05.862Z,457.00
2023-05-22T02:13:05.873Z,457.00
2023-05-22T02:14:05.909Z,458.00
2023-05-22T02:15:05.976Z,460.00
2023-05-22T02:16:06.006Z,459.00
2023-05-22T02:17:06.030Z,455.00
2023-05-22T02:18:06.178Z,456.00
2023-05-22T02:19:06.236Z,454.00
2023-05-22T02:20:06.146Z,458.00
2023-05-22T02:21:06.188Z,460.00
2023-05-22T02:22:06.206Z,460.00
2023-05-22T02:23:06.243Z,459.00
2023-05-22T02:24:06.325Z,460.00
2023-05-22T02:25:06.339Z,460.00
2023-05-22T02:26:06.355Z,460.00
2023-05-22T02:27:06.410Z,459.00
2023-05-22T02:28:06.453Z,456.00
2023-05-22T02:29:06.466Z,456.00
2023-05-22T02:30:06.535Z,455.00
2023-05-22T02:31:06.570Z,457.00
2023-05-22T02:32:06.603Z,456.00
2023-05-22T02:33:06.700Z,457.00
2023-05-22T02:34:06.642Z,456.00
2023-05-22T02:35:06.683Z,459.00
2023-05-22T02:36:06.706Z,458.00
2023-05-22T02:37:06.769Z,459.00
2023-05-22T02:38:06.819Z,458.00
2023-05-22T02:39:06.841Z,457.00
2023-05-22T02:40:06.872Z,458.00
2023-05-22T02:41:06.927Z,460.00
2023-05-22T02:42:06.972Z,460.00
2023-05-22T02:43:07.016Z,462.00
2023-05-22T02:44:07.061Z,463.00
2023-05-22T02:45:07.142Z,461.00
2023-05-22T02:46:07.141Z,460.00
2023-05-22T02:47:07.166Z,463.00
2023-05-22T02:48:07.259Z,462.00
2023-05-22T02:49:07.241Z,459.00
2023-05-22T02:50:07.299Z,457.00
2023-05-22T02:51:07.326Z,457.00
2023-05-22T02:52:07.353Z,457.00
2023-05-22T02:53:07.399Z,457.00
2023-05-22T02:54:07.438Z,456.00
2023-05-22T02:55:07.478Z,454.00
2023-05-22T02:56:07.554Z,452.00
2023-05-22T02:57:07.577Z,451.00
2023-05-22T02:58:07.631Z,451.00
2023-05-22T02:59:07.663Z,450.00
2023-05-22T03:00:07.696Z,450.00
2023-05-22T03:01:07.768Z,449.00
2023-05-22T03:02:07.983Z,449.00
2023-05-22T03:03:07.933Z,448.00
2023-05-22T03:04:07.932Z,446.00
2023-05-22T03:05:07.920Z,444.00
2023-05-22T03:06:07.968Z,447.00
2023-05-22T03:07:08.024Z,448.00
2023-05-22T03:08:08.046Z,450.00
2023-05-22T03:09:08.094Z,451.00
2023-05-22T03:10:08.122Z,453.00
2023-05-22T03:11:08.194Z,454.00
2023-05-22T03:12:08.814Z,455.00
2023-05-22T03:13:08.457Z,456.00
2023-05-22T03:14:08.321Z,456.00
2023-05-22T03:15:08.373Z,456.00
2023-05-22T03:16:08.470Z,458.00
2023-05-22T03:17:08.455Z,458.00
2023-05-22T03:18:08.542Z,458.00
2023-05-22T03:19:08.604Z,459.00
2023-05-22T03:20:08.604Z,457.00
2023-05-22T03:21:08.659Z,458.00
2023-05-22T03:22:08.703Z,457.00
2023-05-22T03:23:08.773Z,458.00
2023-05-22T03:24:08.802Z,458.00
2023-05-22T03:25:08.868Z,456.00
2023-05-22T03:26:08.893Z,458.00
2023-05-22T03:27:08.934Z,457.00
2023-05-22T03:28:08.987Z,458.00
2023-05-22T03:29:09.077Z,460.00
2023-05-22T03:30:09.081Z,461.00
2023-05-22T03:31:09.154Z,458.00
2023-05-22T03:32:09.178Z,457.00
2023-05-22T03:33:09.261Z,456.00
2023-05-22T03:34:09.315Z,456.00
2023-05-22T03:35:09.302Z,457.00
2023-05-22T03:36:09.364Z,454.00
2023-05-22T03:37:09.386Z,455.00
2023-05-22T03:38:09.449Z,456.00
2023-05-22T03:39:09.477Z,455.00
2023-05-22T03:40:09.528Z,455.00
2023-05-22T03:41:09.572Z,454.00
2023-05-22T03:42:09.637Z,456.00
2023-05-22T03:43:09.664Z,455.00
2023-05-22T03:44:09.706Z,453.00
2023-05-22T03:45:09.756Z,452.00
2023-05-22T03:46:09.815Z,451.00
2023-05-22T03:47:09.835Z,449.00
2023-05-22T03:48:09.904Z,451.00
2023-05-22T03:49:09.911Z,453.00
2023-05-22T03:50:09.955Z,455.00
2023-05-22T03:51:10.008Z,456.00
2023-05-22T03:52:10.058Z,455.00
2023-05-22T03:53:10.104Z,455.00
2023-05-22T03:54:10.177Z,454.00
2023-05-22T03:55:10.178Z,456.00
2023-05-22T03:56:10.230Z,459.00
2023-05-22T03:57:10.258Z,459.00
2023-05-22T03:58:10.329Z,462.00
2023-05-22T03:59:10.398Z,461.00
2023-05-22T04:00:10.385Z,458.00
2023-05-22T04:01:10.440Z,458.00
2023-05-22T04:02:10.540Z,459.00
2023-05-22T04:03:10.571Z,457.00
2023-05-22T04:04:10.602Z,456.00
2023-05-22T04:05:10.703Z,455.00
2023-05-22T04:06:10.693Z,455.00
2023-05-22T04:07:10.726Z,453.00
2023-05-22T04:08:10.780Z,453.00
2023-05-22T04:09:10.801Z,453.00
2023-05-22T04:10:10.842Z,454.00
2023-05-22T04:11:10.905Z,453.00
2023-05-22T04:12:10.924Z,453.00
2023-05-22T04:13:10.988Z,453.00
2023-05-22T04:14:11.025Z,455.00
2023-05-22T04:15:11.054Z,458.00
2023-05-22T04:16:11.134Z,460.00
2023-05-22T04:17:11.154Z,462.00
2023-05-22T04:18:11.237Z,461.00
2023-05-22T04:19:11.257Z,461.00
2023-05-22T04:20:11.277Z,459.00
2023-05-22T04:21:11.293Z,459.00
2023-05-22T04:22:11.353Z,459.00
2023-05-22T04:23:11.404Z,457.00
2023-05-22T04:24:11.433Z,458.00
2023-05-22T04:25:11.466Z,460.00
2023-05-22T04:26:11.480Z,456.00
2023-05-22T04:27:11.536Z,458.00
2023-05-22T04:28:11.605Z,458.00
2023-05-22T04:29:11.633Z,456.00
2023-05-22T04:30:11.652Z,453.00
2023-05-22T04:31:11.738Z,450.00
2023-05-22T04:32:11.758Z,452.00
2023-05-22T04:33:11.827Z,454.00
2023-05-22T04:34:11.857Z,456.00
2023-05-22T04:35:11.872Z,457.00
2023-05-22T04:36:12.702Z,457.00
2023-05-22T04:37:11.962Z,457.00
2023-05-22T04:38:11.979Z,457.00
2023-05-22T04:39:12.002Z,456.00
2023-05-22T04:40:12.066Z,458.00
2023-05-22T04:41:12.076Z,458.00
2023-05-22T04:42:12.111Z,458.00
2023-05-22T04:43:12.164Z,458.00
2023-05-22T04:44:12.173Z,450.00
2023-05-22T04:45:12.234Z,451.00
2023-05-22T04:46:12.289Z,451.00
2023-05-22T04:47:12.363Z,455.00
2023-05-22T04:48:12.341Z,457.00
2023-05-22T04:49:12.375Z,456.00
2023-05-22T04:50:12.407Z,453.00
2023-05-22T04:51:12.477Z,452.00
2023-05-22T04:52:12.527Z,453.00
2023-05-22T04:53:12.548Z,450.00
2023-05-22T04:54:12.584Z,450.00
2023-05-22T04:55:12.641Z,453.00
2023-05-22T04:56:14.666Z,452.00
2023-05-22T04:57:12.666Z,452.00
2023-05-22T04:58:12.650Z,452.00
2023-05-22T04:59:12.659Z,453.00
2023-05-22T05:00:12.650Z,454.00
2023-05-22T05:01:12.682Z,452.00
2023-05-22T05:02:12.632Z,454.00
2023-05-22T05:03:12.725Z,453.00
2023-05-22T05:04:12.686Z,453.00
2023-05-22T05:05:12.605Z,456.00
2023-05-22T05:06:12.606Z,454.00
2023-05-22T05:07:12.589Z,455.00
2023-05-22T05:08:12.574Z,455.00
2023-05-22T05:09:12.602Z,452.00
2023-05-22T05:10:12.565Z,452.00
2023-05-22T05:11:12.564Z,450.00
2023-05-22T05:12:12.564Z,448.00
2023-05-22T05:13:12.550Z,448.00
2023-05-22T05:14:12.532Z,449.00
2023-05-22T05:15:12.547Z,451.00
2023-05-22T05:16:12.589Z,453.00
2023-05-22T05:17:12.513Z,454.00
2023-05-22T05:18:12.612Z,457.00
2023-05-22T05:19:12.567Z,457.00
2023-05-22T05:20:12.500Z,461.00
2023-05-22T05:21:15.389Z,464.00
2023-05-22T05:22:12.508Z,469.00
2023-05-22T05:23:12.484Z,471.00
2023-05-22T05:24:12.472Z,480.00
2023-05-22T05:25:12.473Z,520.00
2023-05-22T05:26:12.470Z,528.00
2023-05-22T05:27:12.470Z,541.00
2023-05-22T05:28:12.517Z,615.00
2023-05-22T05:29:12.446Z,614.00
2023-05-22T05:30:12.443Z,652.00
2023-05-22T05:31:12.441Z,760.00
2023-05-22T05:32:12.464Z,802.00
2023-05-22T05:33:12.452Z,854.00
2023-05-22T05:34:12.420Z,879.00
2023-05-22T05:35:12.421Z,957.00
2023-05-22T05:36:12.397Z,977.00
2023-05-22T05:37:12.381Z,1003.00
2023-05-22T05:38:12.378Z,1054.00
2023-05-22T05:39:12.434Z,1101.00
2023-05-22T05:40:12.378Z,1166.00
2023-05-22T05:41:12.377Z,1190.00
2023-05-22T05:42:12.366Z,1197.00
2023-05-22T05:43:12.389Z,1224.00
2023-05-22T05:44:12.393Z,1302.00
2023-05-22T05:45:12.346Z,1305.00
2023-05-22T05:46:12.397Z,1338.00
2023-05-22T05:47:12.414Z,1380.00
2023-05-22T05:48:12.490Z,1394.00
2023-05-22T05:49:12.442Z,1454.00
2023-05-22T05:50:12.472Z,1374.00
2023-05-22T05:51:12.472Z,1142.00
2023-05-22T05:52:12.450Z,1040.00
2023-05-22T05:53:12.479Z,1024.00
2023-05-22T05:54:12.540Z,1021.00
2023-05-22T05:55:13.393Z,1056.00
2023-05-22T05:56:13.371Z,1025.00
2023-05-22T05:57:12.602Z,1135.00
2023-05-22T05:58:12.559Z,960.00
2023-05-22T05:59:12.602Z,857.00
2023-05-22T06:00:14.479Z,941.00
2023-05-22T06:01:12.636Z,931.00
2023-05-22T06:02:13.355Z,932.00
2023-05-22T06:03:12.795Z,941.00
2023-05-22T06:04:12.721Z,874.00
2023-05-22T06:05:12.794Z,1024.00
2023-05-22T06:06:12.811Z,913.00
2023-05-22T06:07:12.806Z,962.00
2023-05-22T06:08:12.830Z,961.00
2023-05-22T06:09:12.866Z,968.00
2023-05-22T06:10:12.883Z,889.00
2023-05-22T06:11:12.881Z,875.00
2023-05-22T06:12:12.999Z,1045.00
2023-05-22T06:13:12.929Z,973.00
2023-05-22T06:14:12.916Z,933.00
2023-05-22T06:15:12.917Z,844.00
2023-05-22T06:16:13.928Z,874.00
2023-05-22T06:17:12.927Z,1010.00
2023-05-22T06:18:12.973Z,997.00
2023-05-22T06:19:12.951Z,923.00
2023-05-22T06:20:12.888Z,895.00
2023-05-22T06:21:12.908Z,1017.00
2023-05-22T06:22:13.006Z,831.00
2023-05-22T06:23:12.937Z,944.00
2023-05-22T06:24:12.858Z,914.00
2023-05-22T06:25:12.854Z,1030.00
2023-05-22T06:26:13.033Z,992.00
2023-05-22T06:27:13.071Z,1036.00
2023-05-22T06:28:12.908Z,1048.00
2023-05-22T06:29:13.218Z,1055.00
2023-05-22T06:30:12.958Z,819.00
2023-05-22T06:31:12.993Z,920.00
2023-05-22T06:32:13.107Z,1063.00
2023-05-22T06:33:13.406Z,958.00
2023-05-22T06:34:13.252Z,942.00
2023-05-22T06:35:13.240Z,1094.00
2023-05-22T06:36:13.295Z,1097.00
2023-05-22T06:37:13.379Z,852.00
2023-05-22T06:38:13.421Z,932.00
2023-05-22T06:39:13.494Z,928.00
2023-05-22T06:40:14.194Z,877.00
2023-05-22T06:41:13.594Z,964.00
2023-05-22T06:42:13.635Z,1015.00
2023-05-22T06:43:13.945Z,1022.00
2023-05-22T06:44:13.708Z,971.00
2023-05-22T06:45:13.658Z,953.00
2023-05-22T06:46:13.781Z,1041.00
2023-05-22T06:47:13.681Z,1050.00
2023-05-22T06:48:13.701Z,1054.00
2023-05-22T06:49:13.640Z,1062.00
2023-05-22T06:50:13.639Z,1066.00
2023-05-22T06:51:13.626Z,1070.00
2023-05-22T06:52:13.675Z,1071.00
2023-05-22T06:53:13.635Z,1070.00
2023-05-22T06:54:13.621Z,1066.00
2023-05-22T06:55:13.682Z,1069.00
2023-05-22T06:56:13.700Z,925.00
2023-05-22T06:57:13.789Z,1052.00
2023-05-22T06:58:13.719Z,1015.00
2023-05-22T06:59:13.722Z,1052.00
2023-05-22T07:00:13.775Z,906.00
2023-05-22T07:01:13.891Z,835.00
2023-05-22T07:02:13.929Z,863.00
2023-05-22T07:03:14.020Z,1074.00
2023-05-22T07:04:14.056Z,1126.00
2023-05-22T07:05:14.006Z,1140.00
2023-05-22T07:06:14.059Z,1151.00
2023-05-22T07:07:14.146Z,1158.00
2023-05-22T07:08:14.160Z,882.00
2023-05-22T07:09:14.211Z,1106.00
2023-05-22T07:10:14.277Z,1152.00
2023-05-22T07:11:14.939Z,1156.00
2023-05-22T07:12:14.431Z,1168.00
2023-05-22T07:13:14.426Z,1222.00
2023-05-22T07:14:14.481Z,1233.00
2023-05-22T07:15:14.624Z,1247.00
2023-05-22T07:16:14.597Z,1311.00
2023-05-22T07:17:14.582Z,1346.00
2023-05-22T07:18:14.703Z,1370.00
2023-05-22T07:19:14.639Z,1367.00
2023-05-22T07:20:14.659Z,1381.00
2023-05-22T07:21:14.672Z,1398.00
2023-05-22T07:22:14.651Z,1324.00
2023-05-22T07:23:14.720Z,1410.00
2023-05-22T07:24:14.702Z,1289.00
2023-05-22T07:25:16.486Z,1277.00
2023-05-22T07:26:15.459Z,1269.00
2023-05-22T07:27:15.375Z,1278.00
2023-05-22T07:28:14.810Z,1284.00
2023-05-22T07:29:14.907Z,1288.00
2023-05-22T07:30:14.891Z,1313.00
2023-05-22T07:31:14.988Z,1292.00
2023-05-22T07:32:15.934Z,1449.00
2023-05-22T07:33:15.157Z,1434.00
2023-05-22T07:34:15.136Z,1341.00
2023-05-22T07:35:15.190Z,1361.00
2023-05-22T07:36:15.307Z,1328.00
2023-05-22T07:37:15.341Z,1342.00
2023-05-22T07:38:15.392Z,1087.00
2023-05-22T07:39:15.431Z,1222.00
2023-05-22T07:40:15.496Z,1166.00
2023-05-22T07:41:15.718Z,1274.00
2023-05-22T07:42:15.647Z,1289.00
2023-05-22T07:43:15.648Z,1076.00
2023-05-22T07:44:15.684Z,1204.00
2023-05-22T07:45:15.708Z,1209.00
2023-05-22T07:46:15.773Z,1301.00
2023-05-22T07:47:15.767Z,1317.00
2023-05-22T07:48:15.850Z,1339.00
2023-05-22T07:49:15.812Z,1363.00
2023-05-22T07:50:15.873Z,1285.00
2023-05-22T07:51:15.867Z,1403.00
2023-05-22T07:52:16.017Z,1248.00
2023-05-22T07:53:15.932Z,1362.00
2023-05-22T07:54:16.025Z,1376.00
2023-05-22T07:55:16.013Z,1164.00
2023-05-22T07:56:16.010Z,1361.00
2023-05-22T07:57:16.051Z,1231.00
2023-05-22T07:58:16.066Z,1401.00
2023-05-22T07:59:16.064Z,1281.00
2023-05-22T08:00:16.080Z,1360.00
2023-05-22T08:01:16.080Z,1208.00
2023-05-22T08:02:16.148Z,1284.00
2023-05-22T08:03:17.562Z,1349.00
2023-05-22T08:04:16.293Z,1305.00
2023-05-22T08:05:16.263Z,1301.00
2023-05-22T08:06:16.190Z,1399.00
2023-05-22T08:07:16.219Z,1411.00
2023-05-22T08:08:16.298Z,1290.00
2023-05-22T08:09:16.328Z,1411.00
2023-05-22T08:10:16.424Z,1326.00
2023-05-22T08:11:16.408Z,1331.00
2023-05-22T08:12:16.443Z,1481.00
2023-05-22T08:13:16.484Z,1605.00
2023-05-22T08:14:16.587Z,1638.00
2023-05-22T08:15:25.856Z,1645.00
2023-05-22T08:16:16.580Z,1419.00
2023-05-22T08:17:16.596Z,1392.00
2023-05-22T08:18:16.545Z,1249.00
2023-05-22T08:19:16.645Z,1352.00
2023-05-22T08:20:16.627Z,1396.00
2023-05-22T08:21:16.509Z,1334.00
2023-05-22T08:22:16.507Z,1402.00
2023-05-22T08:23:16.497Z,1399.00
2023-05-22T08:24:16.524Z,1347.00
2023-05-22T08:25:16.501Z,1342.00
2023-05-22T08:26:16.576Z,1355.00
2023-05-22T08:27:16.483Z,1415.00
2023-05-22T08:28:16.562Z,1426.00
2023-05-22T08:29:16.475Z,1341.00
2023-05-22T08:30:16.467Z,1185.00
2023-05-22T08:31:16.507Z,1324.00
2023-05-22T08:32:16.447Z,1345.00
2023-05-22T08:33:16.469Z,1340.00
2023-05-22T08:34:16.433Z,1332.00
2023-05-22T08:35:16.425Z,1253.00
2023-05-22T08:36:16.434Z,1242.00
2023-05-22T08:37:16.932Z,1131.00
2023-05-22T08:38:16.420Z,1164.00
2023-05-22T08:39:16.408Z,1158.00
2023-05-22T08:40:16.423Z,1106.00
2023-05-22T08:41:16.463Z,1128.00
2023-05-22T08:42:16.390Z,1006.00
2023-05-22T08:43:16.496Z,1025.00
2023-05-22T08:44:16.375Z,1085.00
2023-05-22T08:45:17.375Z,1080.00
2023-05-22T08:46:16.392Z,1044.00
2023-05-22T08:47:16.405Z,1059.00
2023-05-22T08:48:16.346Z,1048.00
2023-05-22T08:49:16.348Z,1039.00
2023-05-22T08:50:16.321Z,1047.00
2023-05-22T08:51:16.325Z,1053.00
2023-05-22T08:52:16.319Z,1058.00
2023-05-22T08:53:16.323Z,1064.00
2023-05-22T08:54:16.299Z,1067.00
2023-05-22T08:55:16.302Z,1080.00
2023-05-22T08:56:16.329Z,1091.00
2023-05-22T08:57:16.309Z,1111.00
2023-05-22T08:58:16.280Z,1120.00
2023-05-22T08:59:16.271Z,1124.00
2023-05-22T09:00:16.334Z,1176.00
2023-05-22T09:01:16.329Z,1195.00
2023-05-22T09:02:16.252Z,1204.00
2023-05-22T09:03:16.415Z,1217.00
2023-05-22T09:04:16.251Z,1231.00
2023-05-22T09:05:16.294Z,1247.00
2023-05-22T09:06:16.228Z,1260.00
2023-05-22T09:07:16.220Z,1272.00
2023-05-22T09:08:20.392Z,1327.00
2023-05-22T09:09:16.223Z,1323.00
2023-05-22T09:10:16.208Z,1298.00
2023-05-22T09:11:16.199Z,1338.00
2023-05-22T09:12:16.612Z,1342.00
2023-05-22T09:13:16.181Z,1345.00
2023-05-22T09:14:16.171Z,1349.00
2023-05-22T09:15:16.173Z,1351.00
2023-05-22T09:16:16.199Z,1360.00
2023-05-22T09:17:16.384Z,1411.00
2023-05-22T09:18:16.169Z,1464.00
2023-05-22T09:19:16.312Z,1449.00
2023-05-22T09:20:16.213Z,1451.00
2023-05-22T09:21:28.696Z,1463.00
2023-05-22T09:22:17.256Z,1482.00
2023-05-22T09:23:16.260Z,1494.00
2023-05-22T09:24:16.240Z,1508.00
2023-05-22T09:25:16.254Z,1582.00
2023-05-22T09:26:16.228Z,1587.00
2023-05-22T09:27:16.220Z,1612.00
2023-05-22T09:28:16.224Z,1611.00
2023-05-22T09:29:16.209Z,1620.00
2023-05-22T09:30:16.265Z,1635.00
2023-05-22T09:31:16.330Z,1669.00
2023-05-22T09:32:16.376Z,1678.00
2023-05-22T09:33:16.432Z,1677.00
2023-05-22T09:34:16.484Z,1677.00
2023-05-22T09:35:16.563Z,1684.00
2023-05-22T09:36:16.594Z,1680.00
2023-05-22T09:37:16.648Z,1675.00
2023-05-22T09:38:16.780Z,1677.00
2023-05-22T09:39:16.756Z,1710.00
2023-05-22T09:40:16.811Z,1699.00
2023-05-22T09:41:16.868Z,1698.00
2023-05-22T09:42:16.904Z,1695.00
2023-05-22T09:43:16.963Z,1699.00
2023-05-22T09:44:17.221Z,1703.00
2023-05-22T09:45:17.067Z,1732.00
2023-05-22T09:46:18.002Z,1754.00
2023-05-22T09:47:17.203Z,1759.00
2023-05-22T09:48:17.190Z,1756.00
2023-05-22T09:49:17.606Z,1760.00
2023-05-22T09:50:17.283Z,1765.00
2023-05-22T09:51:17.321Z,1767.00
2023-05-22T09:52:17.362Z,1768.00
2023-05-22T09:53:17.393Z,1768.00
2023-05-22T09:54:17.520Z,1768.00
2023-05-22T09:55:17.451Z,1768.00
2023-05-22T09:56:24.005Z,1774.00
2023-05-22T09:57:18.472Z,1784.00
2023-05-22T09:58:17.483Z,1775.00
2023-05-22T09:59:17.459Z,1758.00
2023-05-22T10:00:17.561Z,1752.00
2023-05-22T10:01:17.462Z,1742.00
2023-05-22T10:02:17.503Z,1743.00
2023-05-22T10:03:17.429Z,1749.00
2023-05-22T10:04:17.446Z,1745.00
2023-05-22T10:05:17.420Z,1742.00
2023-05-22T10:06:17.414Z,1751.00
2023-05-22T10:07:17.407Z,1750.00
2023-05-22T10:08:17.402Z,1752.00
2023-05-22T10:09:19.258Z,1760.00
2023-05-22T10:10:17.391Z,1763.00
2023-05-22T10:11:17.403Z,1757.00
2023-05-22T10:12:17.370Z,1752.00
2023-05-22T10:13:17.378Z,1735.00
2023-05-22T10:14:17.373Z,1711.00
2023-05-22T10:15:17.361Z,1698.00
2023-05-22T10:16:17.496Z,1694.00
2023-05-22T10:17:17.345Z,1694.00
2023-05-22T10:18:17.411Z,1695.00
2023-05-22T10:19:17.352Z,1700.00
2023-05-22T10:20:17.357Z,1701.00
2023-05-22T10:21:17.987Z,1699.00
2023-05-22T10:22:17.425Z,1695.00
2023-05-22T10:23:17.464Z,1692.00
2023-05-22T10:24:17.460Z,1692.00
2023-05-22T10:25:17.484Z,1693.00
2023-05-22T10:26:17.535Z,1691.00
2023-05-22T10:27:18.493Z,1692.00
2023-05-22T10:28:17.643Z,1694.00
2023-05-22T10:29:18.569Z,1695.00
2023-05-22T10:30:17.762Z,1693.00
2023-05-22T10:31:17.798Z,1691.00
2023-05-22T10:32:17.963Z,1688.00
2023-05-22T10:33:17.951Z,1683.00
2023-05-22T10:34:17.986Z,1680.00
2023-05-22T10:35:18.046Z,1685.00
2023-05-22T10:36:18.087Z,1682.00
2023-05-22T10:37:19.854Z,1681.00
2023-05-22T10:38:18.134Z,1675.00
2023-05-22T10:39:18.114Z,1672.00
2023-05-22T10:40:18.273Z,1667.00
2023-05-22T10:41:18.112Z,1665.00
2023-05-22T10:42:18.095Z,1659.00
2023-05-22T10:43:18.119Z,1659.00
2023-05-22T10:44:18.094Z,1662.00
2023-05-22T10:45:18.097Z,1666.00
2023-05-22T10:46:18.124Z,1662.00
2023-05-22T10:47:18.068Z,1663.00
2023-05-22T10:48:18.144Z,1663.00
2023-05-22T10:49:18.051Z,1660.00
2023-05-22T10:50:18.083Z,1655.00
2023-05-22T10:51:18.052Z,1654.00
2023-05-22T10:52:18.028Z,1649.00
2023-05-22T10:53:18.026Z,1647.00
2023-05-22T10:54:18.091Z,1643.00
2023-05-22T10:55:18.027Z,1639.00
2023-05-22T10:56:18.001Z,1636.00
2023-05-22T10:57:17.997Z,1630.00
2023-05-22T10:58:18.006Z,1629.00
2023-05-22T10:59:17.989Z,1629.00
2023-05-22T11:00:17.981Z,1630.00
2023-05-22T11:01:18.055Z,1629.00
2023-05-22T11:02:18.007Z,1626.00
2023-05-22T11:03:18.781Z,1623.00
2023-05-22T11:04:18.596Z,1622.00
2023-05-22T11:05:17.946Z,1619.00
2023-05-22T11:06:18.002Z,1621.00
2023-05-22T11:07:17.955Z,1619.00
2023-05-22T11:08:19.429Z,1615.00
2023-05-22T11:09:17.924Z,1613.00
2023-05-22T11:10:17.949Z,1612.00
2023-05-22T11:11:17.926Z,1611.00
2023-05-22T11:12:17.942Z,1607.00
2023-05-22T11:13:17.899Z,1607.00
2023-05-22T11:14:17.892Z,1604.00
2023-05-22T11:15:17.919Z,1605.00
2023-05-22T11:16:17.966Z,1602.00
2023-05-22T11:17:17.869Z,1603.00
2023-05-22T11:18:17.893Z,1600.00
2023-05-22T11:20:18.058Z,1594.00
2023-05-22T11:21:17.840Z,1595.00
2023-05-22T11:22:17.822Z,1598.00
2023-05-22T11:23:17.822Z,1593.00
2023-05-22T11:24:17.807Z,1592.00
2023-05-22T11:25:17.819Z,1591.00
2023-05-22T11:26:17.821Z,1593.00
2023-05-22T11:27:17.801Z,1594.00
2023-05-22T11:28:17.796Z,1594.00
2023-05-22T11:29:17.782Z,1591.00
2023-05-22T11:30:17.825Z,1589.00
2023-05-22T11:31:17.804Z,1584.00
2023-05-22T11:32:17.762Z,1585.00
2023-05-22T11:33:17.793Z,1581.00
2023-05-22T11:34:17.751Z,1581.00
2023-05-22T11:35:17.772Z,1580.00
2023-05-22T11:36:17.826Z,1577.00
2023-05-22T11:37:17.739Z,1576.00
2023-05-22T11:38:17.732Z,1575.00
2023-05-22T11:39:17.736Z,1572.00
2023-05-22T11:40:17.735Z,1568.00
2023-05-22T11:41:17.708Z,1568.00
2023-05-22T11:42:17.708Z,1566.00
2023-05-22T11:43:17.709Z,1568.00
2023-05-22T11:44:17.704Z,1568.00
2023-05-22T11:45:17.685Z,1568.00
2023-05-22T11:46:17.754Z,1563.00
2023-05-22T11:47:17.684Z,1561.00
2023-05-22T11:48:17.725Z,1560.00
2023-05-22T11:49:17.662Z,1560.00
2023-05-22T11:50:29.298Z,1556.00
2023-05-22T11:51:18.653Z,1556.00
2023-05-22T11:52:17.732Z,1554.00
2023-05-22T11:53:17.636Z,1551.00
2023-05-22T11:54:17.625Z,1555.00
2023-05-22T11:55:17.635Z,1556.00
2023-05-22T11:56:17.677Z,1555.00
2023-05-22T11:57:17.608Z,1554.00
2023-05-22T11:58:17.607Z,1550.00
2023-05-22T11:59:17.601Z,1548.00
2023-05-22T12:00:17.609Z,1551.00
2023-05-22T12:01:17.633Z,1551.00
2023-05-22T12:02:17.758Z,1552.00
2023-05-22T12:03:18.166Z,1554.00
2023-05-22T12:04:17.891Z,1555.00
2023-05-22T12:05:17.863Z,1550.00
2023-05-22T12:06:18.038Z,1548.00
2023-05-22T12:07:17.986Z,1546.00
2023-05-22T12:08:18.139Z,1544.00
2023-05-22T12:09:18.073Z,1545.00
2023-05-22T12:10:18.121Z,1476.00
2023-05-22T12:11:18.156Z,1245.00
2023-05-22T12:12:19.426Z,1249.00
2023-05-22T12:13:18.311Z,1236.00
2023-05-22T12:14:18.255Z,1182.00
2023-05-22T12:15:18.324Z,1171.00
2023-05-22T12:16:18.333Z,1163.00
2023-05-22T12:17:18.312Z,1167.00
2023-05-22T12:18:18.271Z,1157.00